createdAt,value
2018-10-02T21:33:18.195Z,87.80
2018-10-02T21:35:46.706Z,87.80
2018-10-02T21:38:15.806Z,88.00
2018-10-02T21:40:44.413Z,88.00
2018-10-02T21:43:12.942Z,88.10
2018-10-02T21:45:41.635Z,88.10
2018-10-02T21:48:10.156Z,88.20
2018-10-02T21:50:38.659Z,88.20
2018-10-02T21:53:07.258Z,88.30
2018-10-02T21:55:35.810Z,88.30
2018-10-02T21:58:04.293Z,88.40
2018-10-02T22:00:33.751Z,88.40
2018-10-02T22:03:02.383Z,88.50
2018-10-02T22:05:30.968Z,88.50
2018-10-02T22:07:59.436Z,88.40
2018-10-02T22:10:27.922Z,88.50
2018-10-02T22:12:56.460Z,88.70
2018-10-02T22:15:25.016Z,88.70
2018-10-02T22:17:53.416Z,88.90
2018-10-02T22:20:21.974Z,89.00
2018-10-02T22:22:50.483Z,88.40
2018-10-02T22:25:18.965Z,89.10
2018-10-02T22:27:47.528Z,89.10
2018-10-02T22:30:16.012Z,89.20
2018-10-02T22:32:44.939Z,89.20
2018-10-02T22:35:13.466Z,89.20
2018-10-02T22:37:41.971Z,89.20
2018-10-02T22:40:10.567Z,89.20
2018-10-02T22:42:39.045Z,89.30
2018-10-02T22:45:07.582Z,89.50
2018-10-02T22:47:36.155Z,89.40
2018-10-02T22:50:04.764Z,89.40
2018-10-02T22:52:33.295Z,89.50
2018-10-02T22:55:01.823Z,89.60
2018-10-02T22:57:30.325Z,89.70
2018-10-02T23:01:23.284Z,89.70
2018-10-02T23:03:51.790Z,89.70
2018-10-02T23:06:20.302Z,89.60
2018-10-02T23:08:48.851Z,89.70
2018-10-02T23:11:17.373Z,89.90
2018-10-02T23:13:45.854Z,89.80
2018-10-02T23:16:14.401Z,89.90
2018-10-02T23:18:42.914Z,90.00
2018-10-02T23:21:11.477Z,90.00
2018-10-02T23:23:39.977Z,90.00
2018-10-02T23:26:08.486Z,90.30
2018-10-02T23:28:36.954Z,90.10
2018-10-02T23:31:05.579Z,90.00
2018-10-02T23:33:34.045Z,90.00
2018-10-02T23:36:02.526Z,90.00
2018-10-02T23:38:30.990Z,90.00
2018-10-02T23:40:59.482Z,90.00
2018-10-02T23:43:27.981Z,90.10
2018-10-02T23:45:56.593Z,90.10
2018-10-02T23:48:25.075Z,90.10
2018-10-02T23:50:53.548Z,90.10
2018-10-02T23:53:22.088Z,90.10
2018-10-02T23:55:50.619Z,90.10
2018-10-02T23:58:19.133Z,90.10
